createdAt,value
2019-05-19T00:53:32.991Z,96.30
2019-05-19T00:56:01.631Z,96.20
2019-05-19T00:58:31.527Z,96.10
2019-05-19T01:00:58.954Z,96.00
2019-05-19T01:03:26.452Z,96.00
2019-05-19T01:05:53.865Z,95.90
2019-05-19T01:08:21.356Z,95.50
2019-05-19T01:10:49.228Z,95.40
2019-05-19T01:13:16.806Z,95.30
2019-05-19T01:15:44.313Z,95.40
2019-05-19T01:18:11.761Z,95.50
2019-05-19T01:20:39.290Z,95.60
2019-05-19T01:23:06.726Z,95.40
2019-05-19T01:25:34.155Z,95.30
2019-05-19T01:28:01.974Z,95.40
2019-05-19T01:30:29.489Z,95.70
2019-05-19T01:32:57.045Z,96.10
2019-05-19T01:35:24.578Z,96.30
2019-05-19T01:37:52.055Z,96.70
2019-05-19T01:40:19.513Z,96.70
2019-05-19T01:42:46.983Z,96.70
2019-05-19T01:45:14.797Z,96.60
2019-05-19T01:47:42.285Z,96.60
2019-05-19T01:50:17.468Z,96.50
2019-05-19T01:52:39.070Z,96.50
2019-05-19T01:55:06.592Z,96.60
2019-05-19T01:57:34.032Z,96.10
2019-05-19T02:00:02.121Z,95.80
2019-05-19T02:02:29.908Z,95.80
2019-05-19T02:04:57.356Z,95.60
2019-05-19T02:07:24.802Z,95.60
2019-05-19T02:09:52.353Z,95.80
2019-05-19T02:12:19.778Z,95.80
2019-05-19T02:14:47.241Z,95.80
2019-05-19T02:17:14.673Z,95.90
2019-05-19T02:19:42.121Z,96.00
2019-05-19T02:22:09.533Z,95.90
2019-05-19T02:24:37.137Z,95.90
2019-05-19T02:27:04.562Z,96.10
2019-05-19T02:29:32.049Z,95.90
2019-05-19T02:31:59.571Z,95.80
2019-05-19T02:34:27.025Z,95.80
2019-05-19T02:36:54.469Z,95.70
2019-05-19T02:39:21.916Z,95.70
2019-05-19T02:41:52.478Z,95.30
2019-05-19T02:44:21.617Z,95.10
2019-05-19T02:46:50.679Z,95.30
2019-05-19T02:49:19.407Z,95.70
2019-05-19T02:51:49.253Z,96.10
2019-05-19T02:54:17.512Z,96.30
2019-05-19T02:56:45.861Z,96.40
2019-05-19T02:59:14.036Z,96.30
2019-05-19T03:02:14.750Z,96.20
2019-05-19T03:04:44.231Z,96.20
2019-05-19T03:07:11.655Z,96.20
2019-05-19T03:09:39.183Z,96.20
2019-05-19T03:12:07.621Z,96.10
2019-05-19T03:14:35.065Z,95.60
2019-05-19T03:17:02.515Z,95.70
2019-05-19T03:19:29.939Z,96.00
2019-05-19T03:21:57.399Z,96.30
2019-05-19T03:24:24.851Z,96.60
2019-05-19T03:26:52.793Z,96.60
2019-05-19T03:29:24.694Z,96.60
2019-05-19T03:32:12.309Z,96.40
2019-05-19T03:34:38.026Z,96.40
2019-05-19T03:37:05.510Z,96.40
2019-05-19T03:39:32.932Z,96.40
2019-05-19T03:42:00.415Z,96.40
2019-05-19T03:44:27.801Z,95.90
2019-05-19T03:46:55.247Z,95.80
2019-05-19T03:49:22.683Z,95.80
2019-05-19T03:51:50.155Z,95.90
2019-05-19T03:54:17.647Z,95.60
2019-05-19T03:56:45.304Z,95.60
2019-05-19T03:59:12.827Z,95.60
2019-05-19T04:01:40.355Z,95.80
2019-05-19T04:04:07.786Z,96.20
2019-05-19T04:06:35.206Z,96.10
2019-05-19T04:09:04.122Z,96.30
2019-05-19T04:11:31.616Z,96.40
2019-05-19T04:13:59.084Z,96.50
2019-05-19T04:16:26.615Z,96.80
2019-05-19T04:18:54.368Z,96.80
2019-05-19T04:21:21.821Z,96.70
2019-05-19T04:23:49.260Z,96.50
2019-05-19T04:26:16.678Z,96.40
2019-05-19T04:28:44.132Z,96.50
2019-05-19T04:31:11.594Z,96.40
2019-05-19T04:33:38.974Z,96.30
2019-05-19T04:36:06.431Z,96.00
2019-05-19T04:38:33.858Z,95.90
2019-05-19T04:41:01.333Z,95.70
2019-05-19T04:43:28.734Z,95.70
2019-05-19T04:45:57.312Z,95.70
2019-05-19T04:48:24.777Z,95.70
2019-05-19T04:50:52.250Z,95.50
2019-05-19T04:53:19.814Z,95.10
2019-05-19T04:55:47.287Z,94.90
2019-05-19T04:58:14.803Z,94.90
2019-05-19T05:00:42.306Z,94.80
2019-05-19T05:03:09.629Z,94.70
2019-05-19T05:05:37.087Z,94.60
2019-05-19T05:08:04.645Z,94.40
2019-05-19T05:10:32.165Z,94.00
2019-05-19T05:12:59.724Z,93.70
2019-05-19T05:15:27.180Z,93.50
2019-05-19T05:17:54.860Z,93.70
2019-05-19T05:20:22.384Z,93.50
2019-05-19T05:22:49.815Z,93.50
2019-05-19T05:25:18.409Z,93.30
2019-05-19T05:27:46.004Z,92.80
2019-05-19T05:30:13.448Z,92.50
2019-05-19T05:32:40.881Z,92.60
2019-05-19T05:35:08.852Z,92.00
2019-05-19T05:37:36.286Z,91.90
2019-05-19T05:40:04.842Z,91.90
2019-05-19T05:42:32.446Z,90.90
2019-05-19T05:44:59.862Z,90.30
2019-05-19T05:47:27.379Z,90.80
2019-05-19T05:49:55.055Z,90.70
2019-05-19T05:52:36.060Z,90.70
2019-05-19T05:54:51.900Z,90.90
2019-05-19T05:57:19.337Z,90.10
2019-05-19T05:59:46.768Z,87.70
2019-05-19T06:02:14.206Z,84.50
2019-05-19T06:04:41.641Z,84.50
2019-05-19T06:07:09.105Z,84.30
2019-05-19T06:09:36.536Z,84.90
2019-05-19T06:12:04.212Z,86.60
2019-05-19T06:14:31.745Z,84.50
2019-05-19T06:16:59.217Z,86.00
2019-05-19T06:19:26.649Z,86.00
2019-05-19T06:21:54.153Z,84.30
2019-05-19T06:24:21.723Z,85.30
2019-05-19T06:26:49.360Z,84.30
2019-05-19T06:29:16.974Z,84.00
2019-05-19T06:31:44.530Z,84.00
2019-05-19T06:34:12.005Z,84.10
2019-05-19T06:36:39.550Z,83.60
2019-05-19T06:39:07.094Z,82.70
2019-05-19T06:41:34.679Z,80.80
2019-05-19T06:44:03.464Z,81.50
2019-05-19T06:46:31.541Z,80.20
2019-05-19T06:49:00.460Z,79.90
2019-05-19T06:51:27.949Z,77.10
2019-05-19T06:53:55.377Z,75.40
2019-05-19T06:56:22.816Z,73.90
2019-05-19T06:58:50.413Z,72.00
2019-05-19T07:01:17.937Z,71.10
2019-05-19T07:03:45.609Z,70.20
2019-05-19T07:06:13.135Z,70.40
2019-05-19T07:08:40.677Z,68.30
2019-05-19T07:11:08.115Z,66.80
2019-05-19T07:13:35.657Z,67.40
2019-05-19T07:16:03.300Z,66.60
2019-05-19T07:18:30.991Z,68.50
2019-05-19T07:20:58.464Z,68.30
2019-05-19T07:23:28.522Z,69.60
2019-05-19T07:25:55.528Z,69.10
2019-05-19T07:28:22.999Z,68.50
2019-05-19T07:30:50.448Z,67.90
2019-05-19T07:33:18.034Z,68.30
2019-05-19T07:35:45.592Z,68.50
2019-05-19T07:38:13.018Z,66.30
2019-05-19T07:40:40.690Z,66.80
2019-05-19T07:43:08.155Z,65.10
2019-05-19T07:45:35.630Z,64.80
2019-05-19T07:48:03.494Z,65.30
2019-05-19T07:50:31.012Z,66.40
2019-05-19T07:52:58.622Z,64.20
2019-05-19T07:55:26.172Z,66.40
2019-05-19T07:57:53.809Z,65.00
2019-05-19T08:00:21.526Z,63.50
2019-05-19T08:02:49.088Z,62.20
2019-05-19T08:05:16.585Z,61.20
2019-05-19T08:07:43.975Z,61.60
2019-05-19T08:10:11.647Z,60.10
2019-05-19T08:12:39.250Z,61.60
2019-05-19T08:15:06.859Z,60.30
2019-05-19T08:17:34.306Z,59.00
2019-05-19T08:20:02.118Z,57.20
2019-05-19T08:22:29.586Z,56.90
2019-05-19T08:24:57.133Z,56.30
2019-05-19T08:27:24.571Z,56.00
2019-05-19T08:29:52.097Z,57.00
2019-05-19T08:32:19.649Z,56.30
2019-05-19T08:34:47.199Z,55.50
2019-05-19T08:37:14.757Z,55.80
2019-05-19T08:39:42.347Z,55.20
2019-05-19T08:42:09.795Z,54.20
2019-05-19T08:44:38.360Z,54.30
2019-05-19T08:47:05.843Z,54.30
2019-05-19T08:49:33.462Z,54.80
2019-05-19T08:52:01.072Z,54.30
2019-05-19T08:54:28.689Z,54.00
2019-05-19T08:56:56.231Z,52.90
2019-05-19T08:59:23.723Z,51.30
2019-05-19T09:01:51.384Z,52.50
2019-05-19T09:04:18.806Z,52.80
2019-05-19T09:06:46.266Z,51.90
2019-05-19T09:09:13.769Z,51.40
2019-05-19T09:11:41.217Z,52.20
2019-05-19T09:14:08.814Z,50.30
2019-05-19T09:16:36.401Z,50.00
2019-05-19T09:19:05.167Z,48.70
2019-05-19T09:21:32.635Z,51.90
2019-05-19T09:24:00.110Z,52.90
2019-05-19T09:26:27.679Z,52.20
2019-05-19T09:28:55.285Z,49.00
2019-05-19T09:31:22.754Z,49.90
2019-05-19T09:33:50.254Z,51.40
2019-05-19T09:36:17.945Z,52.00
2019-05-19T09:38:45.433Z,51.00
2019-05-19T09:41:13.929Z,51.10
2019-05-19T09:43:42.390Z,52.00
2019-05-19T09:46:09.855Z,51.70
2019-05-19T09:48:37.330Z,53.20
2019-05-19T09:51:04.990Z,52.90
2019-05-19T09:53:32.540Z,54.20
2019-05-19T09:55:59.994Z,54.30
2019-05-19T09:58:27.488Z,54.50
2019-05-19T10:00:55.142Z,52.90
2019-05-19T10:03:23.027Z,53.90
2019-05-19T10:05:50.801Z,50.30
2019-05-19T10:08:24.300Z,51.40
2019-05-19T10:11:05.301Z,49.60
2019-05-19T10:13:32.835Z,50.50
2019-05-19T10:16:00.452Z,51.70
2019-05-19T10:18:28.123Z,48.70
2019-05-19T10:20:55.805Z,49.90
2019-05-19T10:23:23.617Z,50.30
2019-05-19T10:25:51.381Z,49.10
2019-05-19T10:28:18.997Z,47.50
2019-05-19T10:30:46.632Z,47.20
2019-05-19T10:33:27.117Z,48.40
2019-05-19T10:35:54.615Z,47.50
2019-05-19T10:38:22.344Z,45.50
2019-05-19T10:40:50.087Z,47.60
2019-05-19T10:43:18.083Z,46.10
2019-05-19T10:45:51.087Z,44.90
2019-05-19T10:48:18.726Z,44.30
2019-05-19T10:50:46.354Z,43.80
2019-05-19T10:53:13.894Z,44.00
2019-05-19T10:55:41.561Z,43.80
2019-05-19T10:58:09.282Z,44.30
2019-05-19T11:00:36.893Z,40.30
2019-05-19T11:03:04.321Z,42.10
2019-05-19T11:05:31.825Z,40.00
2019-05-19T11:07:59.392Z,40.60
2019-05-19T11:10:26.908Z,38.80
2019-05-19T11:12:55.013Z,37.60
2019-05-19T11:15:22.706Z,37.60
2019-05-19T11:17:52.252Z,36.80
2019-05-19T11:20:20.034Z,38.90
2019-05-19T11:22:48.370Z,39.40
2019-05-19T11:25:16.398Z,36.60
2019-05-19T11:27:44.303Z,38.00
2019-05-19T11:30:12.364Z,36.30
2019-05-19T11:32:40.321Z,36.60
2019-05-19T11:35:08.598Z,36.30
2019-05-19T11:37:36.795Z,35.10
2019-05-19T11:40:05.230Z,35.10
2019-05-19T11:42:33.179Z,37.30
2019-05-19T11:45:01.167Z,36.00
2019-05-19T11:47:29.094Z,33.60
2019-05-19T11:49:56.710Z,35.70
2019-05-19T11:52:24.645Z,34.40
2019-05-19T11:54:52.483Z,34.20
2019-05-19T11:57:20.567Z,35.90
2019-05-19T11:59:48.698Z,34.50
2019-05-19T12:02:16.479Z,36.20
2019-05-19T12:04:44.077Z,33.40
2019-05-19T12:07:12.113Z,36.90
2019-05-19T12:09:39.916Z,35.00
2019-05-19T12:12:20.053Z,36.60
2019-05-19T12:14:47.718Z,36.00
2019-05-19T12:17:15.357Z,36.20
2019-05-19T12:19:43.415Z,34.40
2019-05-19T12:22:11.007Z,35.40
2019-05-19T12:24:38.714Z,34.50
2019-05-19T12:27:06.306Z,34.20
2019-05-19T12:29:34.145Z,33.00
2019-05-19T12:32:02.071Z,33.60
2019-05-19T12:34:30.694Z,35.30
2019-05-19T12:36:59.339Z,34.50
2019-05-19T12:39:26.992Z,36.20
2019-05-19T12:41:54.607Z,35.90
2019-05-19T12:44:22.117Z,37.70
2019-05-19T12:46:50.897Z,37.60
2019-05-19T12:49:18.614Z,36.20
2019-05-19T12:51:46.163Z,37.10
2019-05-19T12:54:13.634Z,38.60
2019-05-19T12:56:41.119Z,38.60
2019-05-19T12:59:09.616Z,35.90
2019-05-19T13:01:37.062Z,34.40
2019-05-19T13:04:04.530Z,36.30
2019-05-19T13:06:32.062Z,36.80
2019-05-19T13:08:59.646Z,37.90
2019-05-19T13:11:27.154Z,38.30
2019-05-19T13:13:55.155Z,39.10
2019-05-19T13:16:22.683Z,36.80
2019-05-19T13:18:50.169Z,36.60
2019-05-19T13:21:17.634Z,36.00
2019-05-19T13:23:45.272Z,35.70
2019-05-19T13:26:12.737Z,37.70
2019-05-19T13:28:40.224Z,36.80
2019-05-19T13:31:07.752Z,36.20
2019-05-19T13:33:35.394Z,37.40
2019-05-19T13:36:02.890Z,35.90
2019-05-19T13:38:30.413Z,34.80
2019-05-19T13:40:58.242Z,34.80
2019-05-19T13:43:27.097Z,35.00
2019-05-19T13:45:55.259Z,33.60
2019-05-19T13:48:22.834Z,33.30
2019-05-19T13:50:50.401Z,34.40
2019-05-19T13:53:17.986Z,34.10
2019-05-19T13:55:45.527Z,34.20
2019-05-19T13:58:12.982Z,35.60
2019-05-19T14:00:40.527Z,34.80
2019-05-19T14:03:09.896Z,36.00
2019-05-19T14:05:37.361Z,35.40
2019-05-19T14:08:04.846Z,34.50
2019-05-19T14:10:32.506Z,36.50
2019-05-19T14:13:01.167Z,35.10
2019-05-19T14:15:28.646Z,35.90
2019-05-19T14:17:56.116Z,35.00
2019-05-19T14:20:23.753Z,35.30
2019-05-19T14:22:51.352Z,35.40
2019-05-19T14:25:18.894Z,32.70
2019-05-19T14:27:46.367Z,34.10
2019-05-19T14:30:14.042Z,35.10
2019-05-19T14:32:41.778Z,36.60
2019-05-19T14:35:09.226Z,34.80
2019-05-19T14:37:36.839Z,35.10
2019-05-19T14:40:05.706Z,35.40
2019-05-19T14:42:47.320Z,35.60
2019-05-19T14:45:15.626Z,35.70
2019-05-19T14:47:43.135Z,35.40
2019-05-19T14:50:10.694Z,34.80
2019-05-19T14:52:38.185Z,35.00
2019-05-19T14:55:05.870Z,35.60
2019-05-19T14:57:44.356Z,36.90
2019-05-19T15:00:03.164Z,35.90
2019-05-19T15:02:32.105Z,34.50
2019-05-19T15:04:59.682Z,36.00
2019-05-19T15:07:27.243Z,33.30
2019-05-19T15:09:54.824Z,35.00
2019-05-19T15:12:22.374Z,37.40
2019-05-19T15:14:50.008Z,41.10
2019-05-19T15:17:17.476Z,42.70
2019-05-19T15:19:44.989Z,45.80
2019-05-19T15:22:12.446Z,44.70
2019-05-19T15:24:39.999Z,46.80
2019-05-19T15:27:07.445Z,51.90
2019-05-19T15:29:34.999Z,56.10
2019-05-19T15:32:02.900Z,56.40
2019-05-19T15:34:30.481Z,60.10
2019-05-19T15:36:58.224Z,67.60
2019-05-19T15:39:25.764Z,70.40
2019-05-19T15:41:53.259Z,73.90
2019-05-19T15:44:20.757Z,74.10
2019-05-19T15:46:48.317Z,73.30
2019-05-19T15:49:15.948Z,75.60
2019-05-19T15:51:59.000Z,75.60
2019-05-19T15:54:12.955Z,77.60
2019-05-19T15:56:40.569Z,78.00
2019-05-19T15:59:08.188Z,80.20
2019-05-19T16:01:35.681Z,80.80
2019-05-19T16:04:03.259Z,79.90
2019-05-19T16:06:30.838Z,80.60
2019-05-19T16:08:58.344Z,80.00
2019-05-19T16:11:27.024Z,80.20
2019-05-19T16:13:54.498Z,80.00
2019-05-19T16:16:22.002Z,79.10
2019-05-19T16:18:52.733Z,79.50
2019-05-19T16:21:20.073Z,80.20
2019-05-19T16:23:47.531Z,81.20
2019-05-19T16:26:15.113Z,79.50
2019-05-19T16:28:42.581Z,80.00
2019-05-19T16:31:12.898Z,81.70
2019-05-19T16:33:40.442Z,81.90
2019-05-19T16:36:08.157Z,82.10
2019-05-19T16:38:35.861Z,82.50
2019-05-19T16:41:03.418Z,82.70
2019-05-19T16:43:30.935Z,83.60
2019-05-19T16:45:58.455Z,84.90
2019-05-19T16:48:25.941Z,85.50
2019-05-19T16:50:53.481Z,86.00
2019-05-19T16:53:21.007Z,86.20
2019-05-19T16:55:48.734Z,84.90
2019-05-19T16:58:21.280Z,85.30
2019-05-19T17:00:45.880Z,85.50
2019-05-19T17:03:13.401Z,86.20
2019-05-19T17:05:41.066Z,86.90
2019-05-19T17:08:08.781Z,86.40
2019-05-19T17:10:36.513Z,86.60
2019-05-19T17:13:04.107Z,87.10
2019-05-19T17:15:32.180Z,87.90
2019-05-19T17:17:59.885Z,87.30
2019-05-19T17:20:30.727Z,87.70
2019-05-19T17:22:57.391Z,87.50
2019-05-19T17:25:24.832Z,88.10
2019-05-19T17:27:52.828Z,88.40
2019-05-19T17:30:20.730Z,87.90
2019-05-19T17:32:48.241Z,88.20
2019-05-19T17:35:16.016Z,88.40
2019-05-19T17:37:43.620Z,88.60
2019-05-19T17:40:11.859Z,88.40
2019-05-19T17:42:39.405Z,88.20
2019-05-19T17:45:08.645Z,88.10
2019-05-19T17:47:37.284Z,88.10
2019-05-19T17:50:05.988Z,88.60
2019-05-19T17:52:33.651Z,88.60
2019-05-19T17:55:01.515Z,88.80
2019-05-19T17:57:31.195Z,89.00
2019-05-19T17:59:59.910Z,89.70
2019-05-19T18:02:27.476Z,90.40
2019-05-19T18:04:55.005Z,90.60
2019-05-19T18:07:22.614Z,90.60
2019-05-19T18:09:50.438Z,90.50
2019-05-19T18:12:17.912Z,90.50
2019-05-19T18:14:45.771Z,90.30
2019-05-19T18:17:13.439Z,90.50
2019-05-19T18:19:41.111Z,90.30
2019-05-19T18:22:28.121Z,90.40
2019-05-19T18:24:55.766Z,90.70
2019-05-19T18:27:23.472Z,90.80
2019-05-19T18:29:51.407Z,91.00
2019-05-19T18:32:18.887Z,91.20
2019-05-19T18:34:47.570Z,91.40
2019-05-19T18:37:15.064Z,91.40
2019-05-19T18:39:42.678Z,91.50
2019-05-19T18:42:10.242Z,91.40
2019-05-19T18:44:38.034Z,91.70
2019-05-19T18:47:05.759Z,91.80
2019-05-19T18:49:33.339Z,91.90
2019-05-19T18:52:00.904Z,92.30
2019-05-19T18:54:28.377Z,92.60
2019-05-19T18:56:55.925Z,93.20
2019-05-19T18:59:23.481Z,93.50
2019-05-19T19:01:51.025Z,93.80
2019-05-19T19:04:18.625Z,94.00
2019-05-19T19:06:46.211Z,94.20
2019-05-19T19:09:13.699Z,94.20
2019-05-19T19:11:41.226Z,94.30
2019-05-19T19:14:09.030Z,94.40
2019-05-19T19:16:36.478Z,94.50
2019-05-19T19:19:04.263Z,94.50
2019-05-19T19:21:31.744Z,94.70
2019-05-19T19:23:59.319Z,94.80
2019-05-19T19:26:27.047Z,94.80
2019-05-19T19:28:54.982Z,94.80
2019-05-19T19:31:22.581Z,94.80
2019-05-19T19:33:50.148Z,95.00
2019-05-19T19:36:18.799Z,95.10
2019-05-19T19:38:46.520Z,95.10
2019-05-19T19:41:14.046Z,95.10
2019-05-19T19:43:41.635Z,95.00
2019-05-19T19:46:09.539Z,94.90
2019-05-19T19:48:37.196Z,94.90
2019-05-19T19:51:04.692Z,95.20
2019-05-19T19:53:32.201Z,95.50
2019-05-19T19:56:00.724Z,95.50
2019-05-19T19:58:28.293Z,95.30
2019-05-19T20:00:55.987Z,95.70
2019-05-19T20:03:23.758Z,95.80
2019-05-19T20:05:51.914Z,96.50
2019-05-19T20:08:19.576Z,97.10
2019-05-19T20:10:47.043Z,97.30
2019-05-19T20:13:14.582Z,97.40
2019-05-19T20:15:42.252Z,97.30
2019-05-19T20:18:10.021Z,97.40
2019-05-19T20:20:37.661Z,97.40
2019-05-19T20:23:05.163Z,97.10
2019-05-19T20:25:36.930Z,96.00
2019-05-19T20:28:03.266Z,96.30
2019-05-19T20:30:35.874Z,96.50
2019-05-19T20:33:00.230Z,96.80
2019-05-19T20:35:27.814Z,96.90
2019-05-19T20:37:55.314Z,96.80
2019-05-19T20:40:22.933Z,96.60
2019-05-19T20:42:50.532Z,96.80
2019-05-19T20:45:17.993Z,96.50
2019-05-19T20:47:46.582Z,95.90
2019-05-19T20:50:14.034Z,95.90
2019-05-19T20:52:41.723Z,96.40
2019-05-19T20:55:09.368Z,97.10
2019-05-19T20:57:37.097Z,96.60
2019-05-19T21:00:04.829Z,95.50
2019-05-19T21:02:33.900Z,95.90
2019-05-19T21:05:01.369Z,96.50
2019-05-19T21:07:28.977Z,96.20
2019-05-19T21:09:57.736Z,95.70
2019-05-19T21:12:25.186Z,96.40
2019-05-19T21:14:52.675Z,96.80
2019-05-19T21:17:20.149Z,96.70
2019-05-19T21:19:51.665Z,97.00
2019-05-19T21:22:19.378Z,96.00
2019-05-19T21:24:47.064Z,96.20
2019-05-19T21:27:14.679Z,96.50
2019-05-19T21:29:42.564Z,96.70
2019-05-19T21:32:10.333Z,96.60
2019-05-19T21:34:38.266Z,96.50
2019-05-19T21:37:05.926Z,95.90
2019-05-19T21:39:33.510Z,95.80
2019-05-19T21:42:01.138Z,96.40
2019-05-19T21:44:28.785Z,96.90
2019-05-19T21:46:56.430Z,97.20
2019-05-19T21:49:24.015Z,96.60
2019-05-19T21:51:51.538Z,96.80
2019-05-19T21:54:19.600Z,96.10
2019-05-19T21:56:47.034Z,96.90
2019-05-19T21:59:14.516Z,97.20
2019-05-19T22:01:43.242Z,97.30
2019-05-19T22:04:11.014Z,97.10
2019-05-19T22:06:40.416Z,96.90
2019-05-19T22:09:07.928Z,96.50
2019-05-19T22:11:36.183Z,96.50
2019-05-19T22:14:03.641Z,96.60
2019-05-19T22:16:31.153Z,96.90
2019-05-19T22:18:59.143Z,96.70
2019-05-19T22:21:33.091Z,96.90
2019-05-19T22:24:00.550Z,97.30
2019-05-19T22:26:28.057Z,97.40
2019-05-19T22:29:04.334Z,97.40
2019-05-19T22:31:36.969Z,97.40
2019-05-19T22:34:01.561Z,97.10
2019-05-19T22:36:29.488Z,96.60
2019-05-19T22:38:57.152Z,96.50
2019-05-19T22:41:24.583Z,96.50
2019-05-19T22:43:52.215Z,96.60
2019-05-19T22:46:19.618Z,96.90
2019-05-19T22:48:47.154Z,97.10
2019-05-19T22:51:14.609Z,97.10
2019-05-19T22:53:42.215Z,97.10
2019-05-19T22:56:10.133Z,97.10
2019-05-19T22:58:37.801Z,97.10
2019-05-19T23:01:05.242Z,97.00
2019-05-19T23:03:32.738Z,96.90
2019-05-19T23:08:22.732Z,96.50
2019-05-19T23:10:50.291Z,96.70
2019-05-19T23:13:17.905Z,96.90
2019-05-19T23:15:45.531Z,97.00
2019-05-19T23:18:13.190Z,97.00
2019-05-19T23:20:40.870Z,97.20
2019-05-19T23:23:08.398Z,97.40
2019-05-19T23:25:35.989Z,97.40
2019-05-19T23:28:03.451Z,97.40
2019-05-19T23:30:31.130Z,97.40
2019-05-19T23:32:58.624Z,97.40
2019-05-19T23:35:26.114Z,97.40
2019-05-19T23:37:53.595Z,97.40
2019-05-19T23:40:21.383Z,97.40
2019-05-19T23:42:48.875Z,97.40
2019-05-19T23:45:16.705Z,97.40
2019-05-19T23:47:44.178Z,97.40
2019-05-19T23:50:11.781Z,97.40
2019-05-19T23:52:39.256Z,97.40
2019-05-19T23:55:07.545Z,97.40
2019-05-19T23:57:36.094Z,97.40
